C45 weather

Manito Mitchell Airport
Manito, Illinois, United States

Public forecast

Using degrees Fahrenheit for public forecast. Weather courtesy of forecast.io.

Closest aviation weather report (METAR) to Manito Mitchell Airport

Closest report is General Wayne A. Downing Peoria International Airport, 11.2 nm (20.7 km) NNE. Retrieved 2020/05/29 03:54 UTC (54 minutes ago):

KPIA 290354Z 35006KT 10SM BKN031 OVC038 19/16 A2992 RMK AO2 SLP127 T01940161

Closest aviation forecast (TAF) to Manito Mitchell Airport

Closest forecast is General Wayne A. Downing Peoria International Airport, 11.2 nm (20.7 km) NNE. Retrieved 2020-05-29 00:22 UTC (4 hours ago):

TAF KPIA 282320Z 2900/2924 29007KT 6SM -SHRA VCTS OVC015CB FM290200 33007KT P6SM VCSH BKN035 FM290800 34007KT P6SM BKN020 FM291300 33013G20KT P6SM FEW040 SCT250